createdAt,value
2018-12-18T00:02:20.905Z,222.63
2018-12-18T00:04:52.649Z,227.57
2018-12-18T00:07:39.781Z,216.07
2018-12-18T00:10:09.720Z,228.77
2018-12-18T00:12:39.202Z,229.27
2018-12-18T00:15:15.268Z,229.53
2018-12-18T00:17:44.787Z,215.97
2018-12-18T00:20:14.494Z,233.80
2018-12-18T00:22:44.078Z,219.30
2018-12-18T00:25:13.705Z,215.17
2018-12-18T00:27:43.184Z,219.30
2018-12-18T00:30:12.917Z,220.00
2018-12-18T00:32:43.474Z,229.97
2018-12-18T00:35:13.045Z,218.67
2018-12-18T00:37:42.608Z,217.57
2018-12-18T00:40:12.205Z,216.63
2018-12-18T00:42:41.695Z,224.97
2018-12-18T00:45:11.187Z,220.60
2018-12-18T00:47:40.926Z,218.67
2018-12-18T00:50:10.944Z,214.23
2018-12-18T00:52:40.490Z,219.63
2018-12-18T00:55:10.196Z,205.07
2018-12-18T00:57:39.714Z,224.13
2018-12-18T01:00:09.751Z,206.23
2018-12-18T01:02:39.261Z,205.27
2018-12-18T01:05:08.915Z,227.57
2018-12-18T01:07:38.620Z,218.03
2018-12-18T01:10:08.332Z,211.00
2018-12-18T01:12:37.819Z,215.67
2018-12-18T01:15:07.404Z,208.83
2018-12-18T01:17:36.905Z,212.37
2018-12-18T01:20:06.380Z,203.13
2018-12-18T01:22:35.956Z,210.57
2018-12-18T01:25:05.909Z,210.63
2018-12-18T01:27:35.437Z,203.33
2018-12-18T01:30:05.259Z,213.43
2018-12-18T01:32:34.754Z,210.70
2018-12-18T01:35:04.962Z,210.47
2018-12-18T01:37:34.450Z,208.93
2018-12-18T01:40:03.988Z,211.10
2018-12-18T01:42:33.534Z,200.10
2018-12-18T01:45:03.819Z,220.60
2018-12-18T01:47:34.401Z,192.87
2018-12-18T01:50:04.079Z,199.93
2018-12-18T01:52:33.961Z,211.43
2018-12-18T01:55:06.000Z,205.07
2018-12-18T01:57:35.497Z,207.50
2018-12-18T02:00:05.505Z,203.63
2018-12-18T02:02:36.046Z,197.53
2018-12-18T02:05:06.724Z,209.53
2018-12-18T02:07:36.293Z,202.80
2018-12-18T02:10:06.351Z,199.87
2018-12-18T02:12:37.064Z,213.27
2018-12-18T02:15:06.656Z,205.97
2018-12-18T02:17:36.119Z,208.30
2018-12-18T02:20:07.145Z,208.67
2018-12-18T02:22:36.789Z,212.63
2018-12-18T02:25:06.782Z,196.90
2018-12-18T02:27:37.101Z,206.80
2018-12-18T02:30:07.297Z,206.27
2018-12-18T02:32:36.867Z,197.57
2018-12-18T02:35:06.769Z,185.27
2018-12-18T02:37:36.248Z,197.13
2018-12-18T02:40:06.338Z,201.83
2018-12-18T02:42:36.156Z,190.43
2018-12-18T02:45:06.341Z,211.83
2018-12-18T02:47:35.874Z,205.23
2018-12-18T02:50:05.559Z,194.20
2018-12-18T02:52:37.536Z,200.40
2018-12-18T02:58:07.843Z,206.43
2018-12-18T03:00:37.343Z,200.93
2018-12-18T03:03:06.881Z,199.73
2018-12-18T03:05:37.476Z,203.93
2018-12-18T03:08:06.981Z,217.57
2018-12-18T03:10:36.522Z,205.73
2018-12-18T03:13:06.187Z,207.50
2018-12-18T03:15:35.712Z,196.87
2018-12-18T03:18:05.262Z,215.27
2018-12-18T03:20:34.826Z,230.33
2018-12-18T03:23:04.331Z,218.40
2018-12-18T03:25:33.845Z,218.73
2018-12-18T03:28:03.391Z,229.63
2018-12-18T03:30:32.855Z,223.40
2018-12-18T03:33:02.350Z,232.50
2018-12-18T03:35:31.917Z,221.00
2018-12-18T03:38:01.483Z,221.40
2018-12-18T03:40:31.112Z,223.17
2018-12-18T03:43:00.669Z,228.30
2018-12-18T03:45:30.215Z,223.17
2018-12-18T03:47:59.765Z,227.67
2018-12-18T03:50:29.613Z,226.67
2018-12-18T03:52:59.077Z,238.70
2018-12-18T03:55:28.595Z,237.20
2018-12-18T03:58:00.368Z,243.10
2018-12-18T04:00:30.245Z,223.80
2018-12-18T04:02:59.851Z,247.27
2018-12-18T04:05:29.396Z,238.13
2018-12-18T04:07:58.921Z,245.30
2018-12-18T04:10:28.382Z,243.33
2018-12-18T04:12:57.933Z,253.03
2018-12-18T04:15:27.470Z,239.53
2018-12-18T04:17:56.978Z,255.10
2018-12-18T04:20:26.539Z,247.27
2018-12-18T04:22:56.048Z,241.80
2018-12-18T04:25:25.543Z,254.10
2018-12-18T04:27:55.291Z,250.27
2018-12-18T04:30:24.812Z,240.00
2018-12-18T04:32:54.327Z,258.97
2018-12-18T04:35:25.927Z,238.97
2018-12-18T04:37:55.433Z,248.33
2018-12-18T04:40:24.932Z,244.23
2018-12-18T04:42:54.474Z,233.23
2018-12-18T04:45:24.015Z,237.57
2018-12-18T04:47:53.537Z,250.33
2018-12-18T04:50:23.060Z,243.20
2018-12-18T04:52:52.553Z,251.83
2018-12-18T04:55:22.050Z,263.13
2018-12-18T04:57:51.620Z,242.93
2018-12-18T05:00:21.157Z,241.77
2018-12-18T05:02:51.216Z,237.00
2018-12-18T05:05:20.702Z,251.10
2018-12-18T05:07:50.195Z,251.83
2018-12-18T05:10:19.745Z,252.97
2018-12-18T05:12:49.225Z,245.00
2018-12-18T05:15:18.730Z,236.93
2018-12-18T05:17:48.279Z,247.27
2018-12-18T05:20:17.804Z,246.73
2018-12-18T05:22:47.562Z,258.07
2018-12-18T05:25:17.124Z,250.33
2018-12-18T05:27:46.608Z,266.13
2018-12-18T05:30:16.171Z,279.17
2018-12-18T05:32:45.749Z,272.47
2018-12-18T05:35:15.305Z,261.77
2018-12-18T05:37:44.835Z,275.50
2018-12-18T05:40:14.431Z,264.33
2018-12-18T05:42:43.949Z,272.40
2018-12-18T05:45:13.758Z,273.03
2018-12-18T05:47:43.319Z,273.17
2018-12-18T05:50:12.813Z,273.33
2018-12-18T05:52:42.324Z,281.70
2018-12-18T05:55:12.654Z,275.60
2018-12-18T05:57:42.212Z,269.43
2018-12-18T06:00:11.772Z,290.00
2018-12-18T06:02:41.602Z,267.50
2018-12-18T06:05:11.408Z,282.23
2018-12-18T06:07:40.897Z,274.10
2018-12-18T06:10:10.462Z,273.50
2018-12-18T06:12:40.003Z,267.87
2018-12-18T06:15:09.583Z,266.73
2018-12-18T06:17:39.154Z,280.03
2018-12-18T06:20:08.692Z,273.10
2018-12-18T06:22:38.231Z,267.13
2018-12-18T06:25:07.952Z,271.23
2018-12-18T06:27:39.427Z,253.93
2018-12-18T06:30:09.010Z,269.73
2018-12-18T06:32:38.508Z,244.83
2018-12-18T06:35:10.487Z,257.23
2018-12-18T06:37:40.340Z,260.73
2018-12-18T06:40:09.855Z,251.80
2018-12-18T06:42:39.366Z,273.87
2018-12-18T06:45:09.069Z,267.23
2018-12-18T06:47:38.646Z,277.20
2018-12-18T06:50:08.594Z,251.40
2018-12-18T06:52:38.154Z,266.30
2018-12-18T06:55:07.723Z,252.97
2018-12-18T06:57:37.238Z,263.13
2018-12-18T07:00:09.814Z,276.53
2018-12-18T07:02:39.445Z,237.27
2018-12-18T07:05:09.001Z,237.27
2018-12-18T07:07:39.814Z,238.83
2018-12-18T07:10:09.491Z,252.57
2018-12-18T07:12:38.984Z,245.23
2018-12-18T07:15:08.665Z,250.50
2018-12-18T07:17:38.154Z,229.87
2018-12-18T07:20:07.868Z,239.97
2018-12-18T07:22:37.410Z,245.67
2018-12-18T07:25:06.961Z,248.17
2018-12-18T07:27:36.468Z,258.37
2018-12-18T07:30:06.490Z,252.67
2018-12-18T07:32:35.964Z,248.10
2018-12-18T07:35:05.876Z,245.30
2018-12-18T07:37:35.649Z,243.40
2018-12-18T07:40:05.967Z,252.10
2018-12-18T07:42:35.503Z,249.57
2018-12-18T07:45:05.797Z,257.63
2018-12-18T07:47:35.329Z,254.63
2018-12-18T07:50:05.419Z,251.87
2018-12-18T07:52:35.000Z,258.17
2018-12-18T07:55:04.772Z,256.73
2018-12-18T07:57:34.314Z,250.13
2018-12-18T08:00:04.132Z,243.70
2018-12-18T08:02:34.037Z,252.13
2018-12-18T08:05:03.725Z,274.07
2018-12-18T08:07:33.243Z,270.43
2018-12-18T08:10:03.061Z,263.67
2018-12-18T08:12:32.636Z,262.73
2018-12-18T08:15:02.136Z,268.37
2018-12-18T08:17:31.724Z,261.30
2018-12-18T08:20:01.246Z,277.83
2018-12-18T08:22:30.778Z,277.67
2018-12-18T08:25:00.336Z,261.50
2018-12-18T08:27:30.092Z,253.77
2018-12-18T08:29:59.689Z,267.47
2018-12-18T08:32:29.279Z,264.90
2018-12-18T08:34:58.833Z,266.80
2018-12-18T08:37:28.346Z,273.93
2018-12-18T08:39:58.143Z,278.20
2018-12-18T08:42:27.678Z,274.00
2018-12-18T08:44:57.333Z,285.20
2018-12-18T08:47:26.899Z,297.13
2018-12-18T08:49:56.696Z,271.70
2018-12-18T08:52:26.228Z,262.70
2018-12-18T08:54:55.763Z,267.73
2018-12-18T08:57:25.317Z,262.20
2018-12-18T08:59:54.829Z,276.67
2018-12-18T09:02:24.370Z,278.37
2018-12-18T09:19:19.054Z,280.03
2018-12-18T09:21:49.062Z,260.00
2018-12-18T09:24:18.607Z,267.27
2018-12-18T09:26:48.153Z,286.83
2018-12-18T09:29:17.662Z,269.40
2018-12-18T09:31:47.223Z,263.97
2018-12-18T09:34:16.704Z,294.80
2018-12-18T09:36:46.246Z,274.87
2018-12-18T09:39:19.895Z,270.90
2018-12-18T09:41:51.478Z,285.33
2018-12-18T09:44:21.061Z,275.60
2018-12-18T09:46:51.035Z,282.60
2018-12-18T09:49:20.724Z,276.33
2018-12-18T09:51:50.221Z,270.70
2018-12-18T09:54:19.890Z,297.17
2018-12-18T09:56:50.681Z,286.73
2018-12-18T09:59:20.552Z,300.17
2018-12-18T10:01:50.197Z,292.57
2018-12-18T10:04:22.208Z,284.53
2018-12-18T10:06:51.852Z,294.10
2018-12-18T10:09:21.470Z,288.17
2018-12-18T10:11:51.052Z,277.80
2018-12-18T10:14:22.273Z,293.57
2018-12-18T10:16:52.141Z,272.87
2018-12-18T10:51:21.662Z,287.97
2018-12-18T10:53:51.255Z,275.40
2018-12-18T10:56:20.805Z,296.93
2018-12-18T10:58:50.368Z,294.60
2018-12-18T11:01:26.739Z,296.97
2018-12-18T11:03:56.295Z,280.03
2018-12-18T11:06:25.814Z,300.93
2018-12-18T11:08:55.303Z,300.30
2018-12-18T11:11:24.875Z,316.63
2018-12-18T11:13:54.361Z,292.00
2018-12-18T11:16:23.899Z,324.83
2018-12-18T11:18:53.440Z,281.87
2018-12-18T11:21:22.933Z,292.03
2018-12-18T11:23:52.483Z,291.30
2018-12-18T11:32:14.828Z,302.20
2018-12-18T11:40:14.299Z,294.57
2018-12-18T11:57:36.454Z,283.77
2018-12-18T12:00:09.327Z,263.30
2018-12-18T12:02:42.856Z,251.23
2018-12-18T12:05:12.455Z,261.67
2018-12-18T12:07:41.978Z,264.73
2018-12-18T12:10:12.703Z,282.93
2018-12-18T12:12:44.935Z,274.90
2018-12-18T12:15:16.031Z,267.47
2018-12-18T12:17:47.080Z,251.87
2018-12-18T12:25:36.951Z,256.60
2018-12-18T12:28:06.864Z,265.87
2018-12-18T12:30:36.397Z,263.03
2018-12-18T12:33:05.939Z,260.17
2018-12-18T12:35:35.488Z,261.20
2018-12-18T12:38:05.021Z,265.27
2018-12-18T12:40:34.519Z,258.33
2018-12-18T14:10:19.284Z,281.13
2018-12-18T14:12:53.939Z,275.10
2018-12-18T14:15:23.578Z,254.37
2018-12-18T15:33:17.710Z,262.97
2018-12-18T15:35:48.059Z,253.13
2018-12-18T15:38:17.684Z,264.90
2018-12-18T15:40:47.270Z,257.27
2018-12-18T15:43:16.766Z,250.67
2018-12-18T15:45:46.319Z,255.53
2018-12-18T15:48:16.833Z,247.10
2018-12-18T15:50:46.438Z,252.50
2018-12-18T15:53:15.945Z,258.97
2018-12-18T15:55:45.444Z,259.63
2018-12-18T15:58:14.993Z,257.77
2018-12-18T16:00:44.519Z,238.00
2018-12-18T16:03:14.680Z,234.50
2018-12-18T16:05:44.296Z,236.60
2018-12-18T16:08:13.843Z,239.60
2018-12-18T16:10:44.471Z,231.60
2018-12-18T16:13:14.234Z,243.50
2018-12-18T16:15:43.723Z,240.73
2018-12-18T16:18:23.459Z,255.60
2018-12-18T16:21:01.587Z,229.27
2018-12-18T16:23:31.958Z,235.27
2018-12-18T16:26:01.624Z,252.53
2018-12-18T16:28:31.088Z,241.03
2018-12-18T16:31:00.635Z,272.03
2018-12-18T16:36:43.150Z,311.30
2018-12-18T16:39:29.031Z,321.57
2018-12-18T16:42:05.539Z,318.93
2018-12-18T16:44:40.641Z,317.17
2018-12-18T16:47:11.970Z,313.50
2018-12-18T16:49:41.524Z,306.93
2018-12-18T16:52:19.335Z,302.97
2018-12-18T16:54:57.038Z,316.17
2018-12-18T16:57:27.439Z,288.40
2018-12-18T16:59:57.148Z,297.17
2018-12-18T17:02:26.782Z,276.13
2018-12-18T17:04:57.522Z,282.60
2018-12-18T17:07:29.731Z,280.03
2018-12-18T17:09:58.992Z,288.20
2018-12-18T17:12:33.332Z,397.97
2018-12-18T17:15:07.468Z,391.27
2018-12-18T17:17:38.205Z,420.70
2018-12-18T17:20:08.115Z,401.73
2018-12-18T17:22:37.851Z,366.80
2018-12-18T17:25:07.475Z,343.40
2018-12-18T17:27:37.282Z,345.50
2018-12-18T17:30:14.632Z,315.93
2018-12-18T17:32:45.190Z,319.60
2018-12-18T17:35:14.901Z,291.13
2018-12-18T17:37:45.473Z,295.43
2018-12-18T17:40:15.171Z,297.60
2018-12-18T17:42:52.476Z,314.50
2018-12-18T17:45:29.971Z,344.10
2018-12-18T17:48:00.464Z,369.47
2018-12-18T17:50:30.374Z,475.43
2018-12-18T17:53:08.094Z,518.93
2018-12-18T17:55:46.329Z,585.33
2018-12-18T17:58:24.571Z,551.50
2018-12-18T18:00:55.035Z,542.60
2018-12-18T18:03:29.987Z,509.30
2018-12-18T18:06:07.034Z,466.63
2018-12-18T18:08:37.583Z,429.80
2018-12-18T18:11:07.316Z,391.53
2018-12-18T18:13:37.071Z,390.40
2018-12-18T18:16:06.831Z,350.30
2018-12-18T18:18:36.937Z,315.40
2018-12-18T18:21:08.092Z,307.93
2018-12-18T18:23:38.461Z,328.60
2018-12-18T18:26:11.397Z,319.97
2018-12-18T18:28:43.078Z,306.60
2018-12-18T18:31:14.258Z,296.20
2018-12-18T18:33:44.066Z,274.47
2018-12-18T18:36:13.836Z,270.37
2018-12-18T18:38:44.007Z,258.20
2018-12-18T18:41:13.778Z,246.30
2018-12-18T18:43:43.723Z,255.80
2018-12-18T18:46:13.432Z,254.20
2018-12-18T18:48:42.965Z,238.53
2018-12-18T18:51:13.515Z,248.00
2018-12-18T18:53:43.347Z,239.67
2018-12-18T18:56:12.973Z,254.93
2018-12-18T18:58:42.902Z,258.83
2018-12-18T19:01:12.826Z,260.43
2018-12-18T19:03:42.465Z,263.53
2018-12-18T19:06:12.754Z,267.70
2018-12-18T19:08:44.278Z,274.93
2018-12-18T19:11:13.960Z,263.50
2018-12-18T19:13:43.453Z,280.87
2018-12-18T19:16:13.065Z,283.93
2018-12-18T19:18:42.585Z,252.87
2018-12-18T19:21:24.220Z,274.47
2018-12-18T19:23:59.631Z,280.33
2018-12-18T19:26:36.857Z,283.47
2018-12-18T19:29:07.255Z,270.73
2018-12-18T19:31:36.839Z,279.33
2018-12-18T19:34:06.782Z,291.43
2018-12-18T19:36:36.840Z,285.93
2018-12-18T19:39:08.443Z,285.57
2018-12-18T19:41:40.067Z,309.47
2018-12-18T19:44:09.580Z,298.30
2018-12-18T19:46:39.353Z,283.40
2018-12-18T19:49:13.955Z,257.97
2018-12-18T19:51:51.410Z,273.43
2018-12-18T19:54:21.764Z,294.60
2018-12-18T19:56:51.322Z,321.40
2018-12-18T19:59:21.220Z,329.53
2018-12-18T20:01:50.775Z,332.37
2018-12-18T20:04:20.289Z,318.37
2018-12-18T20:06:49.802Z,303.30
2018-12-18T20:09:19.316Z,304.63
2018-12-18T20:11:48.885Z,303.57
2018-12-18T20:14:18.530Z,298.37
2018-12-18T20:16:48.089Z,296.83
2018-12-18T20:19:18.406Z,284.73
2018-12-18T20:21:47.941Z,281.57
2018-12-18T20:24:17.501Z,334.33
2018-12-18T20:26:47.078Z,348.00
2018-12-18T20:29:16.630Z,344.30
2018-12-18T20:31:46.155Z,339.63
2018-12-18T20:34:16.712Z,316.43
2018-12-18T20:36:46.622Z,305.63
2018-12-18T20:39:16.143Z,292.23
2018-12-18T20:41:45.640Z,290.10
2018-12-18T20:44:15.184Z,308.87
2018-12-18T20:46:44.718Z,292.17
2018-12-18T20:49:14.243Z,287.23
2018-12-18T20:51:43.828Z,284.97
2018-12-18T20:54:13.403Z,283.00
2018-12-18T20:56:42.956Z,266.17
2018-12-18T20:59:12.672Z,279.80
2018-12-18T21:01:42.176Z,287.63
2018-12-18T21:04:11.687Z,292.57
2018-12-18T21:06:41.294Z,303.07
2018-12-18T21:09:11.117Z,310.80
2018-12-18T21:11:40.661Z,294.90
2018-12-18T21:14:10.285Z,289.33
2018-12-18T21:16:39.838Z,294.67
2018-12-18T21:19:09.388Z,304.07
2018-12-18T21:21:39.195Z,301.07
2018-12-18T21:24:08.765Z,303.40
2018-12-18T21:26:38.326Z,296.40
2018-12-18T21:29:07.892Z,311.83
2018-12-18T21:31:37.520Z,301.43
2018-12-18T21:34:07.049Z,299.23
2018-12-18T21:36:36.871Z,302.83
2018-12-18T21:39:08.733Z,302.07
2018-12-18T21:41:38.358Z,278.03
2018-12-18T21:44:07.909Z,283.73
2018-12-18T21:46:37.539Z,281.50
2018-12-18T21:49:07.137Z,265.77
2018-12-18T21:51:36.689Z,265.50
2018-12-18T21:54:06.260Z,256.60
2018-12-18T21:56:35.792Z,258.50
2018-12-18T21:59:05.307Z,245.23
2018-12-18T22:01:34.976Z,250.43
2018-12-18T22:04:05.521Z,257.63
2018-12-18T22:06:35.322Z,258.43
2018-12-18T22:09:06.973Z,252.23
2018-12-18T22:11:37.539Z,254.03
2018-12-18T22:14:07.134Z,251.13
2018-12-18T22:16:36.877Z,256.60
2018-12-18T22:19:06.038Z,254.10
2018-12-18T22:21:35.521Z,248.17
2018-12-18T22:24:05.041Z,258.63
2018-12-18T22:26:34.634Z,247.03
2018-12-18T22:29:03.763Z,249.90
2018-12-18T22:31:33.166Z,263.37
2018-12-18T22:34:02.684Z,273.80
2018-12-18T22:36:32.300Z,273.10
2018-12-18T22:39:01.827Z,262.33
2018-12-18T22:41:32.872Z,249.53
2018-12-18T22:44:02.396Z,235.33
2018-12-18T22:46:32.013Z,254.33
2018-12-18T22:49:01.636Z,244.60
2018-12-18T22:51:30.781Z,239.27
2018-12-18T22:54:00.520Z,239.37
2018-12-18T22:56:30.028Z,241.80
2018-12-18T22:58:59.145Z,251.70
2018-12-18T23:01:33.952Z,242.47
2018-12-18T23:04:03.535Z,238.73
2018-12-18T23:06:33.131Z,231.50
2018-12-18T23:09:03.766Z,228.77
2018-12-18T23:11:34.605Z,228.53
2018-12-18T23:14:04.241Z,224.50
2018-12-18T23:16:33.814Z,226.50
2018-12-18T23:19:03.450Z,211.67
2018-12-18T23:21:33.770Z,225.80
2018-12-18T23:24:02.797Z,208.10
2018-12-18T23:26:32.474Z,217.47
2018-12-18T23:29:01.535Z,211.77
2018-12-18T23:31:32.429Z,207.70
2018-12-18T23:34:01.483Z,206.13
2018-12-18T23:36:30.459Z,213.20
2018-12-18T23:39:00.982Z,210.77
2018-12-18T23:41:32.138Z,213.47
2018-12-18T23:44:01.143Z,208.20
2018-12-18T23:46:30.141Z,209.73
2018-12-18T23:48:59.166Z,227.67
2018-12-18T23:51:28.599Z,215.70
2018-12-18T23:53:57.712Z,208.07
2018-12-18T23:56:27.437Z,205.90
2018-12-18T23:58:56.978Z,208.57
